Date,TemperatureHighF,TemperatureAvgF,TemperatureLowF,DewpointHighF,DewpointAvgF,DewpointLowF,HumidityHigh,HumidityAvg,HumidityLow,PressureMaxIn,PressureMinIn,WindSpeedMaxMPH,WindSpeedAvgMPH,GustSpeedMaxMPH,PrecipitationSumIn
2013-2-1,63.9,49.4,38.7,27.0,19.9,10.4,44,31,21,30.32,30.14,11,3,13,0.00
2013-2-2,74.1,59.4,42.4,49.8,37.3,26.0,72,46,29,30.29,30.14,17,5,17,0.00
2013-2-3,71.4,60.5,42.8,36.2,31.6,26.5,59,35,22,30.32,29.99,15,5,15,0.00
2013-2-4,75.6,67.8,60.3,53.9,40.9,31.9,70,39,28,29.99,29.78,23,7,23,0.00
2013-2-5,75.6,65.0,48.7,43.8,41.4,29.9,74,43,23,29.99,29.84,11,3,11,0.00
2013-2-6,75.6,67.0,59.0,54.9,44.9,37.5,71,46,38,29.96,29.81,14,6,15,0.00
2013-2-7,77.0,69.0,60.4,58.9,48.5,28.5,79,50,21,30.08,29.87,15,6,17,0.00
2013-2-8,68.2,63.7,45.3,29.6,24.1,16.9,52,23,15,30.23,30.08,16,6,16,0.00
2013-2-9,64.0,60.5,54.9,52.5,38.0,17.0,77,53,16,30.08,29.75,26,9,26,0.00
2013-2-10,66.4,60.8,59.7,52.5,41.1,23.9,77,55,22,29.99,29.70,25,6,26,0.08
2013-2-11,59.7,56.0,51.3,41.5,32.3,23.9,68,43,25,30.05,29.96,16,4,17,0.00
2013-2-12,67.3,54.1,49.5,49.8,40.7,18.5,88,70,17,30.02,29.81,23,6,23,0.00
2013-2-13,62.2,53.6,36.9,29.1,23.9,19.5,71,34,19,30.14,30.02,15,5,15,0.00
2013-2-14,67.1,42.2,0.0,56.2,31.6,0.0,74,66,22,30.11,29.96,16,5,17,0.00
2013-2-15,67.1,67.1,67.1,56.2,56.2,56.2,68,68,68,30.37,30.02,18,6,19,0.00
2013-2-16,67.1,67.1,67.1,56.2,56.2,56.2,68,68,68,30.43,30.20,15,4,15,0.00
2013-2-17,67.1,67.1,67.1,56.2,56.2,56.2,68,68,68,30.20,30.11,19,8,19,0.00
2013-2-25,0.0,0.0,0.0,0.0,0.0,0.0,0,0,100,29.81,29.64,37,17,37,0.00
2013-2-26,0.0,0.0,0.0,0.0,0.0,0.0,0,0,100,29.84,29.81,21,12,28,0.00
2013-2-28,0.0,0.0,0.0,0.0,0.0,0.0,0,0,100,30.20,30.20,3,3,3,0.00